X  Close Metar Aviation Weather Data     KHVN Tweed New Haven Airport
Temperature
52°F Temperature
43°F Dewpoint
72% Humidity



Wind
8 MPH
13 KM/H
4 M/S
7 KTS



310°
NW
Current Conditions

Clear Clear
Pressure 1011.22 (hPa) - 29.86 (inHg)
Visibility 9.9 (mile) - 16 (km)
Airport
Airport-code KHVN

Location: Tweed New Haven Airport
Distance: 6 (mi)

Metar:
KHVN 061053Z 31007KT 10SM CLR 11/06 A2986 RMK AO2 SLP112 T01110061

Time: 05-06-2021 06:53 EDT